sensor_id;sensor_type;location;lat;lon;timestamp;temperature;humidity
31661;DHT22;18267;52.234;7.444;2023-07-31T00:01:03;17.40;99.90
31661;DHT22;18267;52.234;7.444;2023-07-31T00:03:29;17.40;99.90
31661;DHT22;18267;52.234;7.444;2023-07-31T00:05:54;17.40;99.90
31661;DHT22;18267;52.234;7.444;2023-07-31T00:08:20;17.40;99.90
31661;DHT22;18267;52.234;7.444;2023-07-31T00:10:45;17.30;99.90
31661;DHT22;18267;52.234;7.444;2023-07-31T00:13:11;17.30;99.90
31661;DHT22;18267;52.234;7.444;2023-07-31T00:15:37;17.30;99.90
31661;DHT22;18267;52.234;7.444;2023-07-31T00:18:02;17.30;99.90
31661;DHT22;18267;52.234;7.444;2023-07-31T00:20:28;17.20;99.90
31661;DHT22;18267;52.234;7.444;2023-07-31T00:22:53;17.30;99.90
31661;DHT22;18267;52.234;7.444;2023-07-31T00:25:19;17.10;99.90
31661;DHT22;18267;52.234;7.444;2023-07-31T00:27:44;17.00;99.90
31661;DHT22;18267;52.234;7.444;2023-07-31T00:30:11;17.10;99.90
31661;DHT22;18267;52.234;7.444;2023-07-31T00:32:37;17.10;99.90
31661;DHT22;18267;52.234;7.444;2023-07-31T00:35:03;17.10;99.90
31661;DHT22;18267;52.234;7.444;2023-07-31T00:37:28;17.10;99.90
31661;DHT22;18267;52.234;7.444;2023-07-31T00:39:54;17.20;99.90
31661;DHT22;18267;52.234;7.444;2023-07-31T00:42:19;17.20;99.90
31661;DHT22;18267;52.234;7.444;2023-07-31T00:54:02;17.00;99.90
31661;DHT22;18267;52.234;7.444;2023-07-31T00:56:28;17.00;99.90
31661;DHT22;18267;52.234;7.444;2023-07-31T00:58:55;17.00;99.90
31661;DHT22;18267;52.234;7.444;2023-07-31T01:01:21;17.00;99.90
31661;DHT22;18267;52.234;7.444;2023-07-31T01:03:48;17.00;99.90
31661;DHT22;18267;52.234;7.444;2023-07-31T01:09:11;16.90;99.90
31661;DHT22;18267;52.234;7.444;2023-07-31T01:11:53;16.80;99.90
31661;DHT22;18267;52.234;7.444;2023-07-31T01:14:21;16.70;99.90
31661;DHT22;18267;52.234;7.444;2023-07-31T01:16:47;16.80;99.90
31661;DHT22;18267;52.234;7.444;2023-07-31T01:19:14;16.80;99.90
31661;DHT22;18267;52.234;7.444;2023-07-31T01:25:04;16.90;99.90
31661;DHT22;18267;52.234;7.444;2023-07-31T01:27:35;16.90;99.90
31661;DHT22;18267;52.234;7.444;2023-07-31T01:30:05;16.90;99.90
31661;DHT22;18267;52.234;7.444;2023-07-31T01:32:38;17.00;99.90
31661;DHT22;18267;52.234;7.444;2023-07-31T01:35:04;17.10;99.90
31661;DHT22;18267;52.234;7.444;2023-07-31T01:37:30;17.00;99.90
31661;DHT22;18267;52.234;7.444;2023-07-31T01:39:55;17.00;99.90
31661;DHT22;18267;52.234;7.444;2023-07-31T01:42:21;17.00;99.90
31661;DHT22;18267;52.234;7.444;2023-07-31T01:44:47;16.90;99.90
31661;DHT22;18267;52.234;7.444;2023-07-31T01:47:12;16.90;99.90
31661;DHT22;18267;52.234;7.444;2023-07-31T01:49:38;17.00;99.90
31661;DHT22;18267;52.234;7.444;2023-07-31T01:52:03;17.00;99.90
31661;DHT22;18267;52.234;7.444;2023-07-31T01:54:29;17.00;99.90
31661;DHT22;18267;52.234;7.444;2023-07-31T01:56:54;17.00;99.90
31661;DHT22;18267;52.234;7.444;2023-07-31T01:59:20;17.10;99.90
31661;DHT22;18267;52.234;7.444;2023-07-31T02:01:46;17.00;99.90
31661;DHT22;18267;52.234;7.444;2023-07-31T02:04:11;16.90;99.90
31661;DHT22;18267;52.234;7.444;2023-07-31T02:06:37;16.90;99.90
31661;DHT22;18267;52.234;7.444;2023-07-31T02:09:03;17.00;99.90
31661;DHT22;18267;52.234;7.444;2023-07-31T02:11:28;17.00;99.90
31661;DHT22;18267;52.234;7.444;2023-07-31T02:13:54;16.90;99.90
31661;DHT22;18267;52.234;7.444;2023-07-31T02:16:20;16.90;99.90
31661;DHT22;18267;52.234;7.444;2023-07-31T02:18:45;16.90;99.90
31661;DHT22;18267;52.234;7.444;2023-07-31T02:21:11;16.90;99.90
31661;DHT22;18267;52.234;7.444;2023-07-31T02:23:36;16.90;99.90
31661;DHT22;18267;52.234;7.444;2023-07-31T02:26:02;16.90;99.90
31661;DHT22;18267;52.234;7.444;2023-07-31T02:28:28;17.00;99.90
31661;DHT22;18267;52.234;7.444;2023-07-31T02:30:53;17.00;99.90
31661;DHT22;18267;52.234;7.444;2023-07-31T02:33:19;17.00;99.90
31661;DHT22;18267;52.234;7.444;2023-07-31T02:35:44;17.00;99.90
31661;DHT22;18267;52.234;7.444;2023-07-31T02:38:10;17.00;99.90
31661;DHT22;18267;52.234;7.444;2023-07-31T02:40:35;17.00;99.90
31661;DHT22;18267;52.234;7.444;2023-07-31T02:43:01;17.10;99.90
31661;DHT22;18267;52.234;7.444;2023-07-31T02:45:27;17.10;99.90
31661;DHT22;18267;52.234;7.444;2023-07-31T02:47:52;17.10;99.90
31661;DHT22;18267;52.234;7.444;2023-07-31T02:50:18;17.10;99.90
31661;DHT22;18267;52.234;7.444;2023-07-31T02:52:43;17.20;99.90
31661;DHT22;18267;52.234;7.444;2023-07-31T02:55:09;17.20;99.90
31661;DHT22;18267;52.234;7.444;2023-07-31T02:57:34;17.10;99.90
31661;DHT22;18267;52.234;7.444;2023-07-31T03:00:00;17.00;99.90
31661;DHT22;18267;52.234;7.444;2023-07-31T03:02:25;17.00;99.90
31661;DHT22;18267;52.234;7.444;2023-07-31T03:04:51;17.10;99.90
31661;DHT22;18267;52.234;7.444;2023-07-31T03:07:16;17.00;99.90
31661;DHT22;18267;52.234;7.444;2023-07-31T03:09:42;17.10;99.90
31661;DHT22;18267;52.234;7.444;2023-07-31T03:12:08;17.10;99.90
31661;DHT22;18267;52.234;7.444;2023-07-31T03:14:33;17.10;99.90
31661;DHT22;18267;52.234;7.444;2023-07-31T03:16:59;17.10;99.90
31661;DHT22;18267;52.234;7.444;2023-07-31T03:19:25;17.00;99.90
31661;DHT22;18267;52.234;7.444;2023-07-31T03:21:50;17.00;99.90
31661;DHT22;18267;52.234;7.444;2023-07-31T03:24:16;17.00;99.90
31661;DHT22;18267;52.234;7.444;2023-07-31T03:26:41;17.00;99.90
31661;DHT22;18267;52.234;7.444;2023-07-31T03:29:08;17.10;99.90
31661;DHT22;18267;52.234;7.444;2023-07-31T03:31:33;17.10;99.90
31661;DHT22;18267;52.234;7.444;2023-07-31T03:33:59;17.00;99.90
31661;DHT22;18267;52.234;7.444;2023-07-31T03:36:25;17.00;99.90
31661;DHT22;18267;52.234;7.444;2023-07-31T03:38:51;17.00;99.90
31661;DHT22;18267;52.234;7.444;2023-07-31T03:41:17;17.00;99.90
31661;DHT22;18267;52.234;7.444;2023-07-31T03:43:43;17.10;99.90
31661;DHT22;18267;52.234;7.444;2023-07-31T03:46:08;17.10;99.90
31661;DHT22;18267;52.234;7.444;2023-07-31T03:48:34;17.10;99.90
31661;DHT22;18267;52.234;7.444;2023-07-31T03:50:59;17.10;99.90
31661;DHT22;18267;52.234;7.444;2023-07-31T04:42:56;17.10;99.90
31661;DHT22;18267;52.234;7.444;2023-07-31T04:51:40;17.10;99.90
31661;DHT22;18267;52.234;7.444;2023-07-31T04:54:05;17.10;99.90
31661;DHT22;18267;52.234;7.444;2023-07-31T04:56:31;17.10;99.90
31661;DHT22;18267;52.234;7.444;2023-07-31T04:58:56;17.00;99.90
31661;DHT22;18267;52.234;7.444;2023-07-31T05:01:22;17.00;99.90
31661;DHT22;18267;52.234;7.444;2023-07-31T05:03:47;17.10;99.90
31661;DHT22;18267;52.234;7.444;2023-07-31T05:06:13;17.10;99.90
31661;DHT22;18267;52.234;7.444;2023-07-31T05:08:40;17.10;99.90
31661;DHT22;18267;52.234;7.444;2023-07-31T05:11:06;17.20;99.90
31661;DHT22;18267;52.234;7.444;2023-07-31T05:13:31;17.10;99.90
31661;DHT22;18267;52.234;7.444;2023-07-31T05:15:57;17.20;99.90
31661;DHT22;18267;52.234;7.444;2023-07-31T05:18:22;17.00;99.90
31661;DHT22;18267;52.234;7.444;2023-07-31T05:20:48;17.00;99.90
31661;DHT22;18267;52.234;7.444;2023-07-31T05:59:37;17.30;99.90
31661;DHT22;18267;52.234;7.444;2023-07-31T06:02:03;17.30;99.90
31661;DHT22;18267;52.234;7.444;2023-07-31T06:04:29;17.20;99.90
31661;DHT22;18267;52.234;7.444;2023-07-31T06:06:54;17.20;99.90
31661;DHT22;18267;52.234;7.444;2023-07-31T06:09:20;17.30;99.90
31661;DHT22;18267;52.234;7.444;2023-07-31T06:11:46;17.30;99.90
31661;DHT22;18267;52.234;7.444;2023-07-31T06:14:11;17.50;99.90
31661;DHT22;18267;52.234;7.444;2023-07-31T06:16:37;17.40;99.90
31661;DHT22;18267;52.234;7.444;2023-07-31T06:19:03;17.50;99.90
31661;DHT22;18267;52.234;7.444;2023-07-31T06:21:28;17.50;99.90
31661;DHT22;18267;52.234;7.444;2023-07-31T06:44:38;17.80;99.90
31661;DHT22;18267;52.234;7.444;2023-07-31T06:47:03;17.80;99.90
31661;DHT22;18267;52.234;7.444;2023-07-31T06:49:29;17.70;99.90
31661;DHT22;18267;52.234;7.444;2023-07-31T06:51:55;17.70;99.90
31661;DHT22;18267;52.234;7.444;2023-07-31T06:54:20;17.80;99.90
31661;DHT22;18267;52.234;7.444;2023-07-31T06:56:46;17.70;99.90
31661;DHT22;18267;52.234;7.444;2023-07-31T06:59:11;17.60;99.90
31661;DHT22;18267;52.234;7.444;2023-07-31T07:01:37;17.50;99.90
31661;DHT22;18267;52.234;7.444;2023-07-31T07:04:02;17.50;99.90
31661;DHT22;18267;52.234;7.444;2023-07-31T07:06:28;17.40;99.90
31661;DHT22;18267;52.234;7.444;2023-07-31T07:08:53;17.50;99.90
31661;DHT22;18267;52.234;7.444;2023-07-31T07:11:19;17.50;99.90
31661;DHT22;18267;52.234;7.444;2023-07-31T08:16:05;18.00;99.90
31661;DHT22;18267;52.234;7.444;2023-07-31T08:18:31;18.00;99.90
31661;DHT22;18267;52.234;7.444;2023-07-31T08:20:57;18.10;99.90
31661;DHT22;18267;52.234;7.444;2023-07-31T09:28:10;18.80;99.90
31661;DHT22;18267;52.234;7.444;2023-07-31T09:30:50;18.80;99.90
31661;DHT22;18267;52.234;7.444;2023-07-31T09:33:17;18.90;99.90
31661;DHT22;18267;52.234;7.444;2023-07-31T09:35:43;19.00;99.90
31661;DHT22;18267;52.234;7.444;2023-07-31T09:38:10;19.00;99.90
31661;DHT22;18267;52.234;7.444;2023-07-31T09:40:39;19.10;99.90
31661;DHT22;18267;52.234;7.444;2023-07-31T09:43:10;19.00;99.90
31661;DHT22;18267;52.234;7.444;2023-07-31T09:45:41;19.00;99.90
31661;DHT22;18267;52.234;7.444;2023-07-31T09:48:14;19.10;99.90
31661;DHT22;18267;52.234;7.444;2023-07-31T09:50:48;19.00;99.90
31661;DHT22;18267;52.234;7.444;2023-07-31T09:53:14;19.00;99.90
31661;DHT22;18267;52.234;7.444;2023-07-31T09:55:41;19.00;99.90
31661;DHT22;18267;52.234;7.444;2023-07-31T09:58:08;18.80;99.90
31661;DHT22;18267;52.234;7.444;2023-07-31T10:00:35;19.00;99.90
31661;DHT22;18267;52.234;7.444;2023-07-31T10:03:04;19.00;99.90
31661;DHT22;18267;52.234;7.444;2023-07-31T10:05:42;19.10;99.90
31661;DHT22;18267;52.234;7.444;2023-07-31T10:08:10;19.20;99.90
31661;DHT22;18267;52.234;7.444;2023-07-31T10:10:42;19.40;99.90
31661;DHT22;18267;52.234;7.444;2023-07-31T10:13:08;19.40;99.90
31661;DHT22;18267;52.234;7.444;2023-07-31T10:15:34;19.50;99.90
31661;DHT22;18267;52.234;7.444;2023-07-31T10:18:01;19.60;99.90
31661;DHT22;18267;52.234;7.444;2023-07-31T10:20:28;19.40;99.90
31661;DHT22;18267;52.234;7.444;2023-07-31T10:22:57;19.50;99.90
31661;DHT22;18267;52.234;7.444;2023-07-31T10:25:26;19.70;99.90
31661;DHT22;18267;52.234;7.444;2023-07-31T10:27:52;19.80;99.90
31661;DHT22;18267;52.234;7.444;2023-07-31T10:30:22;19.80;99.90
31661;DHT22;18267;52.234;7.444;2023-07-31T10:32:49;20.00;99.90
31661;DHT22;18267;52.234;7.444;2023-07-31T10:35:17;20.00;99.90
31661;DHT22;18267;52.234;7.444;2023-07-31T10:37:43;20.20;99.90
31661;DHT22;18267;52.234;7.444;2023-07-31T10:40:19;20.20;99.90
31661;DHT22;18267;52.234;7.444;2023-07-31T10:42:56;20.10;99.90
31661;DHT22;18267;52.234;7.444;2023-07-31T10:45:39;20.10;99.90
31661;DHT22;18267;52.234;7.444;2023-07-31T10:48:12;19.90;99.90
31661;DHT22;18267;52.234;7.444;2023-07-31T10:55:52;19.90;99.90
31661;DHT22;18267;52.234;7.444;2023-07-31T10:58:20;19.90;99.90
31661;DHT22;18267;52.234;7.444;2023-07-31T11:00:46;19.90;99.90
31661;DHT22;18267;52.234;7.444;2023-07-31T11:03:19;19.80;99.90
31661;DHT22;18267;52.234;7.444;2023-07-31T11:05:49;19.70;99.90
31661;DHT22;18267;52.234;7.444;2023-07-31T11:08:21;19.90;99.90
31661;DHT22;18267;52.234;7.444;2023-07-31T11:11:11;19.70;99.90
31661;DHT22;18267;52.234;7.444;2023-07-31T11:16:10;19.70;99.90
31661;DHT22;18267;52.234;7.444;2023-07-31T11:18:37;19.70;99.90
31661;DHT22;18267;52.234;7.444;2023-07-31T11:21:03;19.80;99.90
31661;DHT22;18267;52.234;7.444;2023-07-31T11:23:29;19.80;99.90
31661;DHT22;18267;52.234;7.444;2023-07-31T11:25:59;20.00;99.90
31661;DHT22;18267;52.234;7.444;2023-07-31T11:28:25;20.00;99.90
31661;DHT22;18267;52.234;7.444;2023-07-31T11:30:51;19.90;99.90
31661;DHT22;18267;52.234;7.444;2023-07-31T11:33:17;19.90;99.90
31661;DHT22;18267;52.234;7.444;2023-07-31T11:35:45;19.70;99.90
31661;DHT22;18267;52.234;7.444;2023-07-31T11:38:12;19.60;99.90
31661;DHT22;18267;52.234;7.444;2023-07-31T11:40:46;19.60;99.90
31661;DHT22;18267;52.234;7.444;2023-07-31T11:43:11;19.80;99.90
31661;DHT22;18267;52.234;7.444;2023-07-31T11:45:41;19.70;99.90
31661;DHT22;18267;52.234;7.444;2023-07-31T11:48:07;19.80;99.90
31661;DHT22;18267;52.234;7.444;2023-07-31T11:50:34;19.80;99.90
31661;DHT22;18267;52.234;7.444;2023-07-31T11:53:07;19.90;99.90
31661;DHT22;18267;52.234;7.444;2023-07-31T11:55:33;19.90;99.90
31661;DHT22;18267;52.234;7.444;2023-07-31T11:57:59;19.70;99.90
31661;DHT22;18267;52.234;7.444;2023-07-31T12:00:26;19.70;99.90
31661;DHT22;18267;52.234;7.444;2023-07-31T12:02:53;19.70;99.90
31661;DHT22;18267;52.234;7.444;2023-07-31T12:05:18;19.70;99.90
31661;DHT22;18267;52.234;7.444;2023-07-31T12:07:48;19.70;99.90
31661;DHT22;18267;52.234;7.444;2023-07-31T12:10:46;19.70;99.90
31661;DHT22;18267;52.234;7.444;2023-07-31T12:13:24;19.60;99.90
31661;DHT22;18267;52.234;7.444;2023-07-31T12:15:54;19.70;99.90
31661;DHT22;18267;52.234;7.444;2023-07-31T12:18:22;19.70;99.90
31661;DHT22;18267;52.234;7.444;2023-07-31T12:20:53;19.70;99.90
31661;DHT22;18267;52.234;7.444;2023-07-31T12:23:27;19.80;99.90
31661;DHT22;18267;52.234;7.444;2023-07-31T12:26:13;19.80;99.90
31661;DHT22;18267;52.234;7.444;2023-07-31T12:28:43;20.00;99.90
31661;DHT22;18267;52.234;7.444;2023-07-31T12:31:11;20.10;99.90
31661;DHT22;18267;52.234;7.444;2023-07-31T12:33:38;20.10;99.90
31661;DHT22;18267;52.234;7.444;2023-07-31T12:36:08;20.10;99.90
31661;DHT22;18267;52.234;7.444;2023-07-31T12:38:33;20.10;99.90
31661;DHT22;18267;52.234;7.444;2023-07-31T12:40:59;20.00;99.90
31661;DHT22;18267;52.234;7.444;2023-07-31T12:43:25;19.90;99.90
31661;DHT22;18267;52.234;7.444;2023-07-31T12:45:51;19.80;99.90
31661;DHT22;18267;52.234;7.444;2023-07-31T12:48:17;19.90;99.90
31661;DHT22;18267;52.234;7.444;2023-07-31T12:50:43;19.90;99.90
31661;DHT22;18267;52.234;7.444;2023-07-31T12:53:08;20.00;99.90
31661;DHT22;18267;52.234;7.444;2023-07-31T12:55:34;20.10;99.90
31661;DHT22;18267;52.234;7.444;2023-07-31T12:58:02;20.20;99.90
31661;DHT22;18267;52.234;7.444;2023-07-31T13:00:27;20.10;99.90
31661;DHT22;18267;52.234;7.444;2023-07-31T13:02:53;20.10;99.90
31661;DHT22;18267;52.234;7.444;2023-07-31T13:05:19;20.30;99.90
31661;DHT22;18267;52.234;7.444;2023-07-31T13:07:48;20.20;99.90
31661;DHT22;18267;52.234;7.444;2023-07-31T13:10:14;20.20;99.90
31661;DHT22;18267;52.234;7.444;2023-07-31T13:12:40;20.20;99.90
31661;DHT22;18267;52.234;7.444;2023-07-31T13:15:06;20.00;99.90
31661;DHT22;18267;52.234;7.444;2023-07-31T13:17:32;20.00;99.90
31661;DHT22;18267;52.234;7.444;2023-07-31T13:19:58;19.90;99.90
31661;DHT22;18267;52.234;7.444;2023-07-31T13:22:24;19.80;99.90
31661;DHT22;18267;52.234;7.444;2023-07-31T13:24:51;19.70;99.90
31661;DHT22;18267;52.234;7.444;2023-07-31T13:27:17;19.80;99.90
31661;DHT22;18267;52.234;7.444;2023-07-31T13:29:47;19.80;99.90
31661;DHT22;18267;52.234;7.444;2023-07-31T13:32:13;19.80;99.90
31661;DHT22;18267;52.234;7.444;2023-07-31T13:34:38;19.90;99.90
31661;DHT22;18267;52.234;7.444;2023-07-31T13:37:04;20.00;99.90
31661;DHT22;18267;52.234;7.444;2023-07-31T13:39:31;20.10;99.90
31661;DHT22;18267;52.234;7.444;2023-07-31T13:41:58;20.00;99.90
31661;DHT22;18267;52.234;7.444;2023-07-31T13:44:23;19.90;99.90
31661;DHT22;18267;52.234;7.444;2023-07-31T13:46:49;20.00;99.90
31661;DHT22;18267;52.234;7.444;2023-07-31T13:49:14;19.90;99.90
31661;DHT22;18267;52.234;7.444;2023-07-31T13:51:42;19.90;99.90
31661;DHT22;18267;52.234;7.444;2023-07-31T13:54:09;19.80;99.90
31661;DHT22;18267;52.234;7.444;2023-07-31T13:56:37;19.70;99.90
31661;DHT22;18267;52.234;7.444;2023-07-31T13:59:03;19.90;99.90
31661;DHT22;18267;52.234;7.444;2023-07-31T14:01:28;20.10;99.90
31661;DHT22;18267;52.234;7.444;2023-07-31T14:03:54;20.20;99.90
31661;DHT22;18267;52.234;7.444;2023-07-31T14:06:20;20.30;99.90
31661;DHT22;18267;52.234;7.444;2023-07-31T14:08:45;20.40;99.90
31661;DHT22;18267;52.234;7.444;2023-07-31T14:11:11;20.30;99.90
31661;DHT22;18267;52.234;7.444;2023-07-31T14:13:36;20.40;99.90
31661;DHT22;18267;52.234;7.444;2023-07-31T14:16:02;20.50;99.90
31661;DHT22;18267;52.234;7.444;2023-07-31T14:18:27;20.50;99.90
31661;DHT22;18267;52.234;7.444;2023-07-31T14:20:53;20.50;99.90
31661;DHT22;18267;52.234;7.444;2023-07-31T14:23:19;20.40;99.90
31661;DHT22;18267;52.234;7.444;2023-07-31T14:25:46;20.40;99.90
31661;DHT22;18267;52.234;7.444;2023-07-31T14:28:11;20.40;99.90
31661;DHT22;18267;52.234;7.444;2023-07-31T14:30:37;20.40;99.90
31661;DHT22;18267;52.234;7.444;2023-07-31T14:33:03;20.50;99.90
31661;DHT22;18267;52.234;7.444;2023-07-31T14:35:29;20.70;99.90
31661;DHT22;18267;52.234;7.444;2023-07-31T14:37:55;20.70;99.90
31661;DHT22;18267;52.234;7.444;2023-07-31T14:40:20;20.80;99.90
31661;DHT22;18267;52.234;7.444;2023-07-31T14:42:46;20.60;99.90
31661;DHT22;18267;52.234;7.444;2023-07-31T14:45:11;20.50;99.90
31661;DHT22;18267;52.234;7.444;2023-07-31T14:47:37;20.50;99.90
31661;DHT22;18267;52.234;7.444;2023-07-31T14:50:03;20.30;99.90
31661;DHT22;18267;52.234;7.444;2023-07-31T14:52:29;20.40;99.90
31661;DHT22;18267;52.234;7.444;2023-07-31T14:54:55;20.50;99.90
31661;DHT22;18267;52.234;7.444;2023-07-31T14:57:20;20.50;99.90
31661;DHT22;18267;52.234;7.444;2023-07-31T14:59:46;20.40;99.90
31661;DHT22;18267;52.234;7.444;2023-07-31T15:02:12;20.40;99.90
31661;DHT22;18267;52.234;7.444;2023-07-31T15:04:38;20.40;99.90
31661;DHT22;18267;52.234;7.444;2023-07-31T15:07:04;20.30;99.90
31661;DHT22;18267;52.234;7.444;2023-07-31T15:09:29;20.40;99.90
31661;DHT22;18267;52.234;7.444;2023-07-31T15:11:56;20.40;99.90
31661;DHT22;18267;52.234;7.444;2023-07-31T15:14:21;20.30;99.90
31661;DHT22;18267;52.234;7.444;2023-07-31T15:16:47;20.20;99.90
31661;DHT22;18267;52.234;7.444;2023-07-31T15:19:13;20.00;99.90
31661;DHT22;18267;52.234;7.444;2023-07-31T15:21:39;19.90;99.90
31661;DHT22;18267;52.234;7.444;2023-07-31T15:24:05;20.00;99.90
31661;DHT22;18267;52.234;7.444;2023-07-31T15:26:30;19.90;99.90
31661;DHT22;18267;52.234;7.444;2023-07-31T15:29:04;19.80;99.90
31661;DHT22;18267;52.234;7.444;2023-07-31T15:31:34;19.70;99.90
31661;DHT22;18267;52.234;7.444;2023-07-31T15:33:59;19.70;99.90
31661;DHT22;18267;52.234;7.444;2023-07-31T15:36:25;19.70;99.90
31661;DHT22;18267;52.234;7.444;2023-07-31T15:38:50;19.60;99.90
31661;DHT22;18267;52.234;7.444;2023-07-31T15:41:17;19.60;99.90
31661;DHT22;18267;52.234;7.444;2023-07-31T15:43:44;19.50;99.90
31661;DHT22;18267;52.234;7.444;2023-07-31T15:46:14;19.50;99.90
31661;DHT22;18267;52.234;7.444;2023-07-31T15:48:40;19.40;99.90
31661;DHT22;18267;52.234;7.444;2023-07-31T15:51:05;19.40;99.90
31661;DHT22;18267;52.234;7.444;2023-07-31T15:53:31;19.40;99.90
31661;DHT22;18267;52.234;7.444;2023-07-31T15:55:58;19.40;99.90
31661;DHT22;18267;52.234;7.444;2023-07-31T15:58:24;19.40;99.90
31661;DHT22;18267;52.234;7.444;2023-07-31T16:00:49;19.50;99.90
31661;DHT22;18267;52.234;7.444;2023-07-31T16:03:15;19.60;99.90
31661;DHT22;18267;52.234;7.444;2023-07-31T16:05:41;19.60;99.90
31661;DHT22;18267;52.234;7.444;2023-07-31T16:08:08;19.50;99.90
31661;DHT22;18267;52.234;7.444;2023-07-31T16:10:34;19.40;99.90
31661;DHT22;18267;52.234;7.444;2023-07-31T16:13:00;19.40;99.90
31661;DHT22;18267;52.234;7.444;2023-07-31T16:15:26;19.30;99.90
31661;DHT22;18267;52.234;7.444;2023-07-31T16:17:51;19.30;99.90
31661;DHT22;18267;52.234;7.444;2023-07-31T16:20:17;19.40;99.90
31661;DHT22;18267;52.234;7.444;2023-07-31T16:22:42;19.40;99.90
31661;DHT22;18267;52.234;7.444;2023-07-31T16:25:11;19.50;99.90
31661;DHT22;18267;52.234;7.444;2023-07-31T16:27:37;19.50;99.90
31661;DHT22;18267;52.234;7.444;2023-07-31T16:30:03;19.40;99.90
31661;DHT22;18267;52.234;7.444;2023-07-31T16:32:30;19.40;99.90
31661;DHT22;18267;52.234;7.444;2023-07-31T16:34:55;19.30;99.90
31661;DHT22;18267;52.234;7.444;2023-07-31T16:37:21;19.40;99.90
31661;DHT22;18267;52.234;7.444;2023-07-31T16:39:47;19.30;99.90
31661;DHT22;18267;52.234;7.444;2023-07-31T16:42:16;19.30;99.90
31661;DHT22;18267;52.234;7.444;2023-07-31T16:44:43;19.30;99.90
31661;DHT22;18267;52.234;7.444;2023-07-31T16:47:08;19.10;99.90
31661;DHT22;18267;52.234;7.444;2023-07-31T16:49:34;19.10;99.90
31661;DHT22;18267;52.234;7.444;2023-07-31T16:51:59;19.00;99.90
31661;DHT22;18267;52.234;7.444;2023-07-31T16:54:25;19.00;99.90
31661;DHT22;18267;52.234;7.444;2023-07-31T16:56:50;19.00;99.90
31661;DHT22;18267;52.234;7.444;2023-07-31T16:59:17;18.90;99.90
31661;DHT22;18267;52.234;7.444;2023-07-31T17:01:43;18.80;99.90
31661;DHT22;18267;52.234;7.444;2023-07-31T17:04:08;18.90;99.90
31661;DHT22;18267;52.234;7.444;2023-07-31T17:06:34;18.90;99.90
31661;DHT22;18267;52.234;7.444;2023-07-31T17:09:00;18.90;99.90
31661;DHT22;18267;52.234;7.444;2023-07-31T17:11:26;18.90;99.90
31661;DHT22;18267;52.234;7.444;2023-07-31T17:13:51;18.90;99.90
31661;DHT22;18267;52.234;7.444;2023-07-31T17:16:20;18.90;99.90
31661;DHT22;18267;52.234;7.444;2023-07-31T17:18:46;18.90;99.90
31661;DHT22;18267;52.234;7.444;2023-07-31T17:21:12;18.80;99.90
31661;DHT22;18267;52.234;7.444;2023-07-31T17:23:38;18.90;99.90
31661;DHT22;18267;52.234;7.444;2023-07-31T17:26:04;18.80;99.90
31661;DHT22;18267;52.234;7.444;2023-07-31T17:28:30;18.70;99.90
31661;DHT22;18267;52.234;7.444;2023-07-31T17:30:57;18.80;99.90
31661;DHT22;18267;52.234;7.444;2023-07-31T17:33:23;18.70;99.90
31661;DHT22;18267;52.234;7.444;2023-07-31T17:35:48;18.70;99.90
31661;DHT22;18267;52.234;7.444;2023-07-31T17:38:14;18.80;99.90
31661;DHT22;18267;52.234;7.444;2023-07-31T17:40:39;18.80;99.90
31661;DHT22;18267;52.234;7.444;2023-07-31T17:43:05;18.80;99.90
31661;DHT22;18267;52.234;7.444;2023-07-31T17:45:32;18.80;99.90
31661;DHT22;18267;52.234;7.444;2023-07-31T17:47:58;18.70;99.90
31661;DHT22;18267;52.234;7.444;2023-07-31T17:50:23;18.70;99.90
31661;DHT22;18267;52.234;7.444;2023-07-31T17:52:49;18.70;99.90
31661;DHT22;18267;52.234;7.444;2023-07-31T17:55:14;18.70;99.90
31661;DHT22;18267;52.234;7.444;2023-07-31T17:57:40;18.80;99.90
31661;DHT22;18267;52.234;7.444;2023-07-31T18:00:06;18.70;99.90
31661;DHT22;18267;52.234;7.444;2023-07-31T18:02:32;18.70;99.90
31661;DHT22;18267;52.234;7.444;2023-07-31T18:05:01;18.70;99.90
31661;DHT22;18267;52.234;7.444;2023-07-31T18:07:26;18.60;99.90
31661;DHT22;18267;52.234;7.444;2023-07-31T18:09:52;18.60;99.90
31661;DHT22;18267;52.234;7.444;2023-07-31T18:12:17;18.60;99.90
31661;DHT22;18267;52.234;7.444;2023-07-31T18:14:43;18.60;99.90
31661;DHT22;18267;52.234;7.444;2023-07-31T18:17:08;18.60;99.90
31661;DHT22;18267;52.234;7.444;2023-07-31T18:19:34;18.50;99.90
31661;DHT22;18267;52.234;7.444;2023-07-31T18:21:59;18.60;99.90
31661;DHT22;18267;52.234;7.444;2023-07-31T18:24:25;18.50;99.90
31661;DHT22;18267;52.234;7.444;2023-07-31T18:26:50;18.50;99.90
31661;DHT22;18267;52.234;7.444;2023-07-31T18:29:16;18.50;99.90
31661;DHT22;18267;52.234;7.444;2023-07-31T18:31:42;18.40;99.90
31661;DHT22;18267;52.234;7.444;2023-07-31T18:34:08;18.50;99.90
31661;DHT22;18267;52.234;7.444;2023-07-31T18:37:13;18.50;99.90
31661;DHT22;18267;52.234;7.444;2023-07-31T18:39:41;18.40;99.90
31661;DHT22;18267;52.234;7.444;2023-07-31T18:42:07;18.30;99.90
31661;DHT22;18267;52.234;7.444;2023-07-31T18:44:33;18.30;99.90
31661;DHT22;18267;52.234;7.444;2023-07-31T18:47:00;18.30;99.90
31661;DHT22;18267;52.234;7.444;2023-07-31T18:49:25;18.30;99.90
31661;DHT22;18267;52.234;7.444;2023-07-31T18:51:51;18.30;99.90
31661;DHT22;18267;52.234;7.444;2023-07-31T18:54:16;18.30;99.90
31661;DHT22;18267;52.234;7.444;2023-07-31T18:56:42;18.30;99.90
31661;DHT22;18267;52.234;7.444;2023-07-31T18:59:08;18.20;99.90
31661;DHT22;18267;52.234;7.444;2023-07-31T19:01:33;18.20;99.90
31661;DHT22;18267;52.234;7.444;2023-07-31T19:03:59;18.20;99.90
31661;DHT22;18267;52.234;7.444;2023-07-31T19:06:25;18.20;99.90
31661;DHT22;18267;52.234;7.444;2023-07-31T19:08:54;18.20;99.90
31661;DHT22;18267;52.234;7.444;2023-07-31T19:11:19;18.10;99.90
31661;DHT22;18267;52.234;7.444;2023-07-31T19:13:45;18.20;99.90
31661;DHT22;18267;52.234;7.444;2023-07-31T19:16:11;18.20;99.90
31661;DHT22;18267;52.234;7.444;2023-07-31T19:18:36;18.30;99.90
31661;DHT22;18267;52.234;7.444;2023-07-31T19:21:02;18.30;99.90
31661;DHT22;18267;52.234;7.444;2023-07-31T19:23:28;18.30;99.90
31661;DHT22;18267;52.234;7.444;2023-07-31T19:25:53;18.30;99.90
31661;DHT22;18267;52.234;7.444;2023-07-31T19:28:19;18.20;99.90
31661;DHT22;18267;52.234;7.444;2023-07-31T19:30:46;18.20;99.90
31661;DHT22;18267;52.234;7.444;2023-07-31T19:33:12;18.20;99.90
31661;DHT22;18267;52.234;7.444;2023-07-31T19:35:39;18.20;99.90
31661;DHT22;18267;52.234;7.444;2023-07-31T19:38:04;18.20;99.90
31661;DHT22;18267;52.234;7.444;2023-07-31T19:40:30;18.20;99.90
31661;DHT22;18267;52.234;7.444;2023-07-31T19:42:55;18.20;99.90
31661;DHT22;18267;52.234;7.444;2023-07-31T19:45:23;18.20;99.90
31661;DHT22;18267;52.234;7.444;2023-07-31T19:47:49;18.30;99.90
31661;DHT22;18267;52.234;7.444;2023-07-31T19:50:15;18.30;99.90